• Join FlightAware (Why Join?)
  • Login
  • US Flag 
03:00AM EDT


 

Airport Tracker/Info


-or-


 

Live Flight TrackerFlight Track Log ✈ UAL4563 ✈ 23-Apr-2013 ✈ KCLE - KMHT

Flight Track Log - Related Links

Times and Time Zones

All times are in EDT time to prevent confusion due to time zone crossing. See the UAL4563 flight status page for this flight to view local times or setup timezone preferences in your user account.

Time Position Orientation Groundspeed Altitude Reporting Facility
EDT Latitude Longitude Course Direction KTS MPH feet Rate Location/Type
07:12PM 41.3939 -81.8869 273° West 172 198 1,800  Level Cleveland Center
07:12PM 41.3956 -81.9283 273° West 203 234 3,100 2,280 Climbing Cleveland Center
07:13PM 41.4364 -81.9872 313° West 223 257 5,400 2,460 Climbing Cleveland Center
07:14PM 41.5039 -81.9278 33° Northeast 202 232 8,000 2,460 Climbing Cleveland Center
07:15PM 41.5611 -81.8403 49° Northeast 288 331 10,400 1,440 Climbing Cleveland Center
07:16PM 41.6206 -81.7497 49° Northeast 314 361 10,900 900 Climbing Cleveland Center
07:17PM 41.6944 -81.6369 49° Northeast 374 430 12,200 1,560 Climbing Cleveland Center
07:18PM 41.7706 -81.5214 49° Northeast 403 464 14,100 1,920 Climbing Cleveland Center
07:19PM 41.8361 -81.3997 54° Northeast 403 464 16,100 2,100 Climbing Cleveland Center
07:20PM 41.8622 -81.2550 76° East 390 449 18,400 1,800 Climbing Cleveland Center
07:21PM 41.8900 -81.0964 77° East 390 449 19,700 1,560 Climbing Cleveland Center
07:22PM 41.9136 -80.9486 78° East 397 457 21,600 1,680 Climbing Cleveland Center
07:23PM 41.9369 -80.8036 78° East 397 457 23,100 1,320 Climbing Cleveland Center
07:24PM 41.9619 -80.6475 78° East 412 474 24,300 1,200 Climbing Cleveland Center
07:25PM 41.9850 -80.4911 79° East 418 481 25,500 1,200 Climbing Cleveland Center
07:26PM 42.0097 -80.3261 79° East 437 503 26,700 1,200 Climbing Cleveland Center
07:27PM 42.0364 -80.1667 77° East 442 509 27,900 1,140 Climbing Cleveland Center
07:28PM 42.0586 -80.0014 80° East 442 509 29,000 1,080 Climbing Cleveland Center
07:29PM 42.0828 -79.8558 77° East 442 509 30,100 1,080 Climbing Cleveland Center
07:30PM 42.1067 -79.6958 79° East 442 509 31,200 1,140 Climbing Cleveland Center
07:31PM 42.1303 -79.5278 79° East 447 514 32,400 1,140 Climbing Cleveland Center
07:32PM 42.1536 -79.3647 79° East 447 514 33,500 1,140 Climbing Cleveland Center
07:33PM 42.1767 -79.1992 79° East 447 514 34,700 720 Climbing Cleveland Center
07:34PM 42.1997 -79.0306 79° East 447 514 35,000 120 Climbing Cleveland Center
07:35PM 42.2261 -78.8364 80° East 459 528 35,000  Level Cleveland Center
07:36PM 42.2500 -78.6478 80° East 481 554 35,000  Level Cleveland Center
07:37PM 42.2719 -78.4617 81° East 494 568 35,000  Level Cleveland Center
07:38PM 42.2975 -78.2728 80° East 507 583 35,000  Level Cleveland Center
07:39PM 42.3186 -78.0839 81° East 507 583 35,000  Level Cleveland Center
07:40PM 42.3414 -77.8919 81° East 507 583 35,000  Level Cleveland Center
07:41PM 42.3617 -77.7028 82° East 507 583 35,000  Level Cleveland Center
07:42PM 42.3861 -77.5161 80° East 507 583 35,000  Level Cleveland Center
07:43PM 42.4061 -77.3322 82° East 502 578 35,000  Level Cleveland Center
07:45PM 42.4358 -77.0517 82° East 510 587 35,000  Level Boston Center
07:46PM 42.4578 -76.8675 81° East 499 574 35,000  Level Boston Center
07:47PM 42.4775 -76.6831 82° East 499 574 35,000  Level Boston Center
07:48PM 42.5000 -76.4675 82° East 499 574 35,000  Level Boston Center
07:49PM 42.5183 -76.2942 82° East 479 551 35,000  Level Boston Center
07:50PM 42.5369 -76.1147 82° East 454 522 35,000  Level Boston Center
07:51PM 42.5522 -75.9606 82° East 431 496 35,000  Level Boston Center
07:52PM 42.5672 -75.8119 82° East 410 472 35,000 -420 Level Boston Center
07:53PM 42.5797 -75.6661 83° East 397 457 34,200 -1,680 Descending Boston Center
07:54PM 42.5944 -75.5117 83° East 392 451 31,700 -2,400 Descending Boston Center
07:55PM 42.6111 -75.3544 82° East 398 458 29,400 -2,100 Descending Boston Center
07:56PM 42.6275 -75.1972 82° East 415 478 27,500 -2,340 Descending Boston Center
07:57PM 42.6394 -75.0481 84° East 433 498 24,800 -2,280 Descending Boston Center
07:58PM 42.6531 -74.8989 83° East 425 489 23,000 -900 Descending Boston Center
07:59PM 42.6667 -74.7442 83° East 412 474 23,000  Level Boston Center
08:00PM 42.6803 -74.5839 83° East 412 474 23,000  Level Boston Center
08:01PM 42.6958 -74.4147 83° East 430 495 23,000  Level Boston Center
08:02PM 42.7089 -74.2514 84° East 430 495 23,000  Level Boston Center
08:03PM 42.7242 -74.0822 83° East 437 503 23,000  Level Boston Center
08:04PM 42.7367 -73.9186 84° East 443 510 23,000  Level Boston Center
08:05PM 42.7492 -73.7492 84° East 443 510 23,000  Level Boston Center
08:06PM 42.7575 -73.5656 86° East 443 510 23,000  Level Boston Center
08:07PM 42.7633 -73.3931 87° East 443 510 23,000 -300 Level Boston Center
08:08PM 42.7686 -73.2264 87° East 443 510 22,500 -900 Descending Boston Center
08:09PM 42.7739 -73.0653 87° East 438 504 21,200 -1,560 Descending Boston Center
08:10PM 42.7786 -72.9125 88° East 433 498 19,400 -1,920 Descending Boston Center
08:11PM 42.7833 -72.7653 87° East 422 486 17,400 -1,800 Descending Boston Center
08:12PM 42.7858 -72.6156 89° East 401 461 15,900 -1,740 Descending Boston Center
08:13PM 42.7922 -72.4656 87° East 396 456 14,000 -1,980 Descending Boston Center
08:14PM 42.7942 -72.3242 89° East 382 440 12,000 -1,740 Descending Boston Center
08:15PM 42.8003 -72.1856 87° East 354 407 10,600 -1,200 Descending Boston Center
08:16PM 42.8083 -72.0778 84° East 308 354 9,700 -1,200 Descending Boston Center
08:17PM 42.8414 -71.9928 62° Northeast 265 305 8,300 -1,440 Descending Boston Center
08:18PM 42.8367 -71.8908 94° East 251 289 6,900 -1,500 Descending Boston Center
08:19PM 42.8319 -71.7917 94° East 256 295 5,300 -960 Descending Boston Center
08:20PM 42.8272 -71.7011 94° East 256 295 5,000 -180 Descending Boston Center
08:21PM 42.8225 -71.6164 94° East 237 273 5,000 -300 Level Boston Center
08:22PM 42.7992 -71.5486 115° Southeast 208 239 4,400 -1,020 Descending Boston Center
08:23PM 42.7672 -71.4842 124° Southeast 201 231 3,000 -1,200 Descending Boston Center
08:24PM 42.7583 -71.4136 100° East 187 215 2,100 -540 Descending Boston Center
08:25PM 42.7725 -71.3597 70° East 158 182 2,000 -60 Descending Boston Center
08:26PM 42.8100 -71.3703 348° North 103 119 2,000  Level Boston Center
08:27PM 42.8478 -71.3839 345° North 128 147 2,000 -420 Level Boston Center
08:28PM 42.8792 -71.4058 333° Northwest 133 153 1,200 -720 Descending Boston Center
08:29PM 42.9106 -71.4253 336° Northwest 133 153 600 -600 Descending Boston Center
08:31PM 42.9167 -71.4333 316° Northwest  Level FlightAware Approximate
08:38PM 42.9328 -71.4358 316° Northwest  Level Estimated